Time;durP1;ratioP1;P1;durP2;ratioP2;P2;SDS_P1;SDS_P2;PMS_P1;PMS_P2;Temp;Humidity;BMP_temperature;BMP_pressure;BME280_temperature;BME280_humidity;BME280_pressure;Samples;Min_cycle;Max_cycle;Signal;HPM_P1;HPM_P2
2022/10/23 00:03:45;;;;;;;;;;;;;;;;;;8420320;27;27717;-78
2022/10/23 00:07:45;;;;;;;;;;;;;;;;;;8421463;27;28463;-79
2022/10/23 00:11:49;;;;;;;;;;;;;;;;;;8427382;27;28480;-79
2022/10/23 00:15:49;;;;;;;;;;;;;;;;;;8423379;27;27707;-78
2022/10/23 00:19:50;;;;;;;;;;;;;;;;;;8425446;27;28350;-78
2022/10/23 00:23:50;;;;;;;;;;;;;;;;;;8421861;27;27570;-78
2022/10/23 00:27:50;;;;;;;;;;;;;;;;;;8425142;27;27509;-78
2022/10/23 00:31:50;;;;;;;;;;;;;;;;;;8421815;27;27565;-78
2022/10/23 00:35:50;;;;;;;;;;;;;;;;;;8422156;27;27282;-79
2022/10/23 00:39:51;;;;;;;;;;;;;;;;;;8419293;27;28175;-78
2022/10/23 00:43:51;;;;;;;;;;;;;;;;;;8418587;27;28381;-79
2022/10/23 00:47:53;;;;;;;;;;;;;;;;;;8423507;27;28333;-78
2022/10/23 00:51:54;;;;;;;;;;;;;;;;;;8421582;27;27727;-78
2022/10/23 00:55:56;;;;;;;;;;;;;;;;;;8425994;27;29267;-78
2022/10/23 00:59:56;;;;;;;;;;;;;;;;;;8424678;27;28102;-79
2022/10/23 01:03:56;;;;;;;;;;;;;;;;;;8421118;27;27244;-78
2022/10/23 01:07:57;;;;;;;;;;;;;;;;;;8424363;27;28891;-78
2022/10/23 01:11:57;;;;;;;;;;;;;;;;;;8421375;27;28678;-78
2022/10/23 01:15:57;;;;;;;;;;;;;;;;;;8425057;27;27429;-78
2022/10/23 01:19:57;;;;;;;;;;;;;;;;;;8418382;27;27423;-78
2022/10/23 01:23:57;;;;;;;;;;;;;;;;;;8427894;27;27181;-80
2022/10/23 01:27:57;;;;;;;;;;;;;;;;;;8435896;27;27640;-78
2022/10/23 01:31:58;;;;;;;;;;;;;;;;;;8435683;27;27736;-79
2022/10/23 01:35:58;;;;;;;;;;;;;;;;;;8437568;27;27407;-78
2022/10/23 01:39:58;;;;;;;;;;;;;;;;;;8433225;27;28298;-78
2022/10/23 01:43:58;;;;;;;;;;;;;;;;;;8435041;27;28679;-79
2022/10/23 01:47:58;;;;;;;;;;;;;;;;;;8429953;27;28660;-76
2022/10/23 01:51:58;;;;;;;;;;;;;;;;;;8428341;27;27984;-78
2022/10/23 01:55:58;;;;;;;;;;;;;;;;;;8427179;27;29357;-78
2022/10/23 01:59:58;;;;;;;;;;;;;;;;;;8430939;27;27343;-78
2022/10/23 02:03:59;;;;;;;;;;;;;;;;;;8428998;27;29996;-78
2022/10/23 02:07:59;;;;;;;;;;;;;;;;;;8431028;27;27582;-78
2022/10/23 02:11:59;;;;;;;;;;;;;;;;;;8435586;27;28137;-79
2022/10/23 02:15:59;;;;;;;;;;;;;;;;;;8428440;27;27590;-79
2022/10/23 02:19:59;;;;;;;;;;;;;;;;;;8435111;27;28066;-78
2022/10/23 02:23:59;;;;;;;;;;;;;;;;;;8431544;27;27400;-78
2022/10/23 02:28:00;;;;;;;;;;;;;;;;;;8430303;27;28475;-78
2022/10/23 02:32:00;;;;;;;;;;;;;;;;;;8432518;27;28517;-78
2022/10/23 02:36:00;;;;;;;;;;;;;;;;;;8424689;27;28619;-79
2022/10/23 02:40:00;;;;;;;;;;;;;;;;;;8430297;27;27106;-78
2022/10/23 02:44:00;;;;;;;;;;;;;;;;;;8424245;27;27346;-79
2022/10/23 02:48:00;;;;;;;;;;;;;;;;;;8427969;27;27341;-78
2022/10/23 02:52:00;;;;;;;;;;;;;;;;;;8429659;27;28007;-78
2022/10/23 02:56:01;;;;;;;;;;;;;;;;;;8428366;27;29634;-78
2022/10/23 03:00:01;;;;;;;;;;;;;;;;;;8430138;27;28291;-79
2022/10/23 03:04:01;;;;;;;;;;;;;;;;;;8423155;27;28485;-78
2022/10/23 03:08:01;;;;;;;;;;;;;;;;;;8421399;27;28439;-79
2022/10/23 03:12:01;;;;;;;;;;;;;;;;;;8417421;27;28184;-79
2022/10/23 03:16:01;;;;;;;;;;;;;;;;;;8431212;27;27425;-78
2022/10/23 03:20:02;;;;;;;;;;;;;;;;;;8427658;27;28579;-79
2022/10/23 03:24:02;;;;;;;;;;;;;;;;;;8428901;27;27541;-78
2022/10/23 03:28:02;;;;;;;;;;;;;;;;;;8431792;27;28433;-78
2022/10/23 03:32:02;;;;;;;;;;;;;;;;;;8427990;27;27532;-78
2022/10/23 03:36:02;;;;;;;;;;;;;;;;;;8425268;27;28146;-77
2022/10/23 03:40:02;;;;;;;;;;;;;;;;;;8422890;27;28177;-78
2022/10/23 03:44:02;;;;;;;;;;;;;;;;;;8425203;27;28309;-79
2022/10/23 03:48:02;;;;;;;;;;;;;;;;;;8428760;27;28141;-78
2022/10/23 03:52:03;;;;;;;;;;;;;;;;;;8427565;27;27418;-78
2022/10/23 03:56:03;;;;;;;;;;;;;;;;;;8425543;27;27410;-79
2022/10/23 04:00:03;;;;;;;;;;;;;;;;;;8432782;27;28492;-79
2022/10/23 04:04:03;;;;;;;;;;;;;;;;;;8432956;27;27277;-79
2022/10/23 04:08:03;;;;;;;;;;;;;;;;;;8432582;27;28465;-79
2022/10/23 04:12:03;;;;;;;;;;;;;;;;;;8430985;27;28804;-78
2022/10/23 04:16:03;;;;;;;;;;;;;;;;;;8421542;27;27366;-79
2022/10/23 04:20:04;;;;;;;;;;;;;;;;;;8426225;27;27616;-77
2022/10/23 04:24:04;;;;;;;;;;;;;;;;;;8429695;27;28201;-79
2022/10/23 04:28:04;;;;;;;;;;;;;;;;;;8429681;27;27371;-79
2022/10/23 04:32:04;;;;;;;;;;;;;;;;;;8433737;27;28282;-79
2022/10/23 04:36:04;;;;;;;;;;;;;;;;;;8437226;27;27590;-79
2022/10/23 04:40:04;;;;;;;;;;;;;;;;;;8438217;27;28144;-80
2022/10/23 04:44:04;;;;;;;;;;;;;;;;;;8445745;27;28693;-77
2022/10/23 04:48:05;;;;;;;;;;;;;;;;;;8437695;27;28255;-78
2022/10/23 04:52:05;;;;;;;;;;;;;;;;;;8444834;27;28156;-77
2022/10/23 04:56:05;;;;;;;;;;;;;;;;;;8443020;27;28519;-77
2022/10/23 05:00:05;;;;;;;;;;;;;;;;;;8436444;27;27328;-78
2022/10/23 05:04:05;;;;;;;;;;;;;;;;;;8422628;27;27231;-78
2022/10/23 05:08:05;;;;;;;;;;;;;;;;;;8433584;27;27564;-77
2022/10/23 05:12:06;;;;;;;;;;;;;;;;;;8429661;27;28597;-78
2022/10/23 05:16:06;;;;;;;;;;;;;;;;;;8431890;27;27216;-78
2022/10/23 05:20:06;;;;;;;;;;;;;;;;;;8429646;27;27450;-77
2022/10/23 05:24:06;;;;;;;;;;;;;;;;;;8420577;27;28491;-77
2022/10/23 05:28:06;;;;;;;;;;;;;;;;;;8428828;27;27220;-78
2022/10/23 05:32:06;;;;;;;;;;;;;;;;;;8429131;27;27138;-79
2022/10/23 05:36:06;;;;;;;;;;;;;;;;;;8424976;27;28332;-77
2022/10/23 05:40:06;;;;;;;;;;;;;;;;;;8430974;27;28173;-78
2022/10/23 05:44:07;;;;;;;;;;;;;;;;;;8426483;27;27419;-78
2022/10/23 05:48:07;;;;;;;;;;;;;;;;;;8433925;27;27717;-78
2022/10/23 05:52:07;;;;;;;;;;;;;;;;;;8426225;27;28318;-78
2022/10/23 05:56:07;;;;;;;;;;;;;;;;;;8425317;27;27489;-77
2022/10/23 06:00:08;;;;;;;;;;;;;;;;;;8426685;27;29068;-78
2022/10/23 06:04:08;;;;;;;;;;;;;;;;;;8434717;27;29109;-78
2022/10/23 06:08:08;;;;;;;;;;;;;;;;;;8420872;27;27400;-78
2022/10/23 06:12:08;;;;;;;;;;;;;;;;;;8432402;27;28117;-80
2022/10/23 06:16:08;;;;;;;;;;;;;;;;;;8438327;27;28425;-78
2022/10/23 06:20:08;;;;;;;;;;;;;;;;;;8432469;27;28743;-78
2022/10/23 06:24:09;;;;;;;;;;;;;;;;;;8429556;27;28281;-78
2022/10/23 06:28:09;;;;;;;;;;;;;;;;;;8425641;27;27787;-78
2022/10/23 06:32:09;;;;;;;;;;;;;;;;;;8430761;27;28164;-78
2022/10/23 06:36:09;;;;;;;;;;;;;;;;;;8426220;27;27237;-78
2022/10/23 06:40:09;;;;;;;;;;;;;;;;;;8425285;27;27354;-78
2022/10/23 06:44:10;;;;;;;;;;;;;;;;;;8429998;27;27332;-78
2022/10/23 06:48:10;;;;;;;;;;;;;;;;;;8430492;27;28201;-78
2022/10/23 06:52:10;;;;;;;;;;;;;;;;;;8426239;27;27262;-76
2022/10/23 06:56:10;;;;;;;;;;;;;;;;;;8432572;27;28478;-78
2022/10/23 07:00:10;;;;;;;;;;;;;;;;;;8421096;27;27596;-79
2022/10/23 07:04:13;;;;;;;;;;;;;;;;;;8431432;27;28468;-78
2022/10/23 07:08:13;;;;;;;;;;;;;;;;;;8427832;27;27350;-77
2022/10/23 07:12:13;;;;;;;;;;;;;;;;;;8426184;27;27403;-77
2022/10/23 07:16:13;;;;;;;;;;;;;;;;;;8426940;27;27238;-79
2022/10/23 07:20:13;;;;;;;;;;;;;;;;;;8432814;27;28545;-78
2022/10/23 07:24:14;;;;;;;;;;;;;;;;;;8420927;27;27803;-81
2022/10/23 07:28:14;;;;;;;;;;;;;;;;;;8422695;27;28436;-78
2022/10/23 07:32:14;;;;;;;;;;;;;;;;;;8425515;27;29999;-79
2022/10/23 07:36:14;;;;;;;;;;;;;;;;;;8432090;27;28446;-78
2022/10/23 07:40:16;;;;;;;;;;;;;;;;;;8430436;27;27091;-77
2022/10/23 07:44:16;;;;;;;;;;;;;;;;;;8428033;27;27839;-79
2022/10/23 07:48:16;;;;;;;;;;;;;;;;;;8429409;27;28144;-79
2022/10/23 07:52:16;;;;;;;;;;;;;;;;;;8427442;27;28207;-78
2022/10/23 07:56:16;;;;;;;;;;;;;;;;;;8423794;27;28342;-78
2022/10/23 08:00:17;;;;;;;;;;;;;;;;;;8430676;27;27166;-79
2022/10/23 08:04:18;;;;;;;;;;;;;;;;;;8433909;27;28346;-79
2022/10/23 08:08:18;;;;;;;;;;;;;;;;;;8434691;27;28278;-78
2022/10/23 08:12:18;;;;;;;;;;;;;;;;;;8436838;27;28187;-79
2022/10/23 08:16:18;;;;;;;;;;;;;;;;;;8440755;27;28149;-78
2022/10/23 08:20:18;;;;;;;;;;;;;;;;;;8433006;27;27495;-78
2022/10/23 08:24:18;;;;;;;;;;;;;;;;;;8425320;27;27531;-78
2022/10/23 08:28:19;;;;;;;;;;;;;;;;;;8420999;27;28586;-79
2022/10/23 08:32:19;;;;;;;;;;;;;;;;;;8429904;27;28493;-78
2022/10/23 08:36:19;;;;;;;;;;;;;;;;;;8421963;27;28172;-79
2022/10/23 08:40:19;;;;;;;;;;;;;;;;;;8419219;27;27225;-79
2022/10/23 08:44:19;;;;;;;;;;;;;;;;;;8420042;27;28227;-78
2022/10/23 08:48:19;;;;;;;;;;;;;;;;;;8421657;27;27739;-78
2022/10/23 08:52:20;;;;;;;;;;;;;;;;;;8418762;27;28232;-76
2022/10/23 08:56:20;;;;;;;;;;;;;;;;;;8422436;27;28553;-77
2022/10/23 09:00:20;;;;;;;;;;;;;;;;;;8417902;27;27532;-76
2022/10/23 09:04:20;;;;;;;;;;;;;;;;;;8413308;27;47262;-77
2022/10/23 09:08:20;;;;;;;;;;;;;;;;;;8425954;27;29580;-76
2022/10/23 09:12:20;;;;;;;;;;;;;;;;;;8420890;27;28595;-77
2022/10/23 09:16:20;;;;;;;;;;;;;;;;;;8422159;27;28557;-77
2022/10/23 09:20:21;;;;;;;;;;;;;;;;;;8419267;27;27256;-77
2022/10/23 09:24:21;;;;;;;;;;;;;;;;;;8415340;27;27376;-78
2022/10/23 09:28:21;;;;;;;;;;;;;;;;;;8417577;27;27833;-76
2022/10/23 09:32:21;;;;;;;;;;;;;;;;;;8418822;27;28113;-77
2022/10/23 09:36:27;;;;;;;;;;;;;;;;;;8417699;27;28277;-78
2022/10/23 09:40:28;;;;;;;;;;;;;;;;;;8418783;27;28580;-77
2022/10/23 09:44:28;;;;;;;;;;;;;;;;;;8425445;27;28346;-77
2022/10/23 09:48:28;;;;;;;;;;;;;;;;;;8421239;27;28944;-77
2022/10/23 09:52:28;;;;;;;;;;;;;;;;;;8427002;27;29514;-77
2022/10/23 09:56:29;;;;;;;;;;;;;;;;;;8425868;27;28458;-77
2022/10/23 10:00:29;;;;;;;;;;;;;;;;;;8417359;27;28384;-78
2022/10/23 10:04:29;;;;;;;;;;;;;;;;;;8429790;27;28404;-79
2022/10/23 10:08:29;;;;;;;;;;;;;;;;;;8433384;27;27758;-79
2022/10/23 10:12:29;;;;;;;;;;;;;;;;;;8435311;27;46649;-77
2022/10/23 10:16:29;;;;;;;;;;;;;;;;;;8436918;27;27806;-76
2022/10/23 10:20:29;;;;;;;;;;;;;;;;;;8431714;27;28442;-78
2022/10/23 10:24:30;;;;;;;;;;;;;;;;;;8434106;27;28595;-78
2022/10/23 10:28:30;;;;;;;;;;;;;;;;;;8439353;27;28546;-77
2022/10/23 10:32:33;;;;;;;;;;;;;;;;;;8430425;27;27363;-77
2022/10/23 10:36:33;;;;;;;;;;;;;;;;;;8429437;27;27410;-76
2022/10/23 10:40:33;;;;;;;;;;;;;;;;;;8423796;27;28576;-77
2022/10/23 10:44:33;;;;;;;;;;;;;;;;;;8424307;27;28147;-76
2022/10/23 10:48:33;;;;;;;;;;;;;;;;;;8422036;27;29763;-76
2022/10/23 10:52:33;;;;;;;;;;;;;;;;;;8428862;27;27734;-77
2022/10/23 10:56:33;;;;;;;;;;;;;;;;;;8423046;27;27206;-78
2022/10/23 11:00:34;;;;;;;;;;;;;;;;;;8427434;27;28184;-76
2022/10/23 11:04:34;;;;;;;;;;;;;;;;;;8422131;27;27675;-77
2022/10/23 11:08:34;;;;;;;;;;;;;;;;;;8422005;27;28105;-78
2022/10/23 11:12:34;;;;;;;;;;;;;;;;;;8425337;27;28293;-77
2022/10/23 11:16:35;;;;;;;;;;;;;;;;;;8429171;27;28239;-78
2022/10/23 11:20:35;;;;;;;;;;;;;;;;;;8415968;27;27990;-76
2022/10/23 11:24:37;;;;;;;;;;;;;;;;;;8423861;27;27423;-77
2022/10/23 11:28:37;;;;;;;;;;;;;;;;;;8423301;27;29109;-78
2022/10/23 11:32:38;;;;;;;;;;;;;;;;;;8427058;27;28611;-77
2022/10/23 11:36:38;;;;;;;;;;;;;;;;;;8442854;27;28458;-77
2022/10/23 11:40:38;;;;;;;;;;;;;;;;;;8427061;27;28478;-76
2022/10/23 11:44:39;;;;;;;;;;;;;;;;;;8419634;27;28291;-77
2022/10/23 11:48:39;;;;;;;;;;;;;;;;;;8420536;27;28644;-77
2022/10/23 11:52:39;;;;;;;;;;;;;;;;;;8424359;27;27699;-77
2022/10/23 11:56:39;;;;;;;;;;;;;;;;;;8421088;27;28191;-77
2022/10/23 12:00:40;;;;;;;;;;;;;;;;;;8431183;27;28227;-77
2022/10/23 12:04:40;;;;;;;;;;;;;;;;;;8422923;27;29531;-78
2022/10/23 12:08:40;;;;;;;;;;;;;;;;;;8428362;27;27181;-77
2022/10/23 12:12:41;;;;;;;;;;;;;;;;;;8427496;27;28384;-78
2022/10/23 12:16:42;;;;;;;;;;;;;;;;;;8425911;27;29410;-76
2022/10/23 12:20:42;;;;;;;;;;;;;;;;;;8423013;27;29185;-77
2022/10/23 12:24:42;;;;;;;;;;;;;;;;;;8421651;27;46264;-77
2022/10/23 12:28:42;;;;;;;;;;;;;;;;;;8420007;27;28566;-76
2022/10/23 12:32:42;;;;;;;;;;;;;;;;;;8419384;27;27564;-76
2022/10/23 12:36:46;;;;;;;;;;;;;;;;;;8409827;27;47293;-75
2022/10/23 12:40:46;;;;;;;;;;;;;;;;;;8423477;27;27371;-75
2022/10/23 12:44:47;;;;;;;;;;;;;;;;;;8416586;27;28291;-75
2022/10/23 12:48:47;;;;;;;;;;;;;;;;;;8425604;27;28400;-73
2022/10/23 12:52:47;;;;;;;;;;;;;;;;;;8414523;27;29271;-75
2022/10/23 12:56:47;;;;;;;;;;;;;;;;;;8416356;27;28209;-74
2022/10/23 13:00:47;;;;;;;;;;;;;;;;;;8417395;27;27596;-74
2022/10/23 13:04:47;;;;;;;;;;;;;;;;;;8416656;27;27579;-74
2022/10/23 13:08:48;;;;;;;;;;;;;;;;;;8424656;27;27519;-74
2022/10/23 13:12:48;;;;;;;;;;;;;;;;;;8417764;27;28962;-72
2022/10/23 13:16:48;;;;;;;;;;;;;;;;;;8417776;27;28309;-75
2022/10/23 13:20:48;;;;;;;;;;;;;;;;;;8420257;27;29744;-74
2022/10/23 13:24:48;;;;;;;;;;;;;;;;;;8410871;27;28399;-73
2022/10/23 13:28:48;;;;;;;;;;;;;;;;;;8421440;27;27156;-75
2022/10/23 13:32:49;;;;;;;;;;;;;;;;;;8420240;27;27338;-74
2022/10/23 13:36:49;;;;;;;;;;;;;;;;;;8414921;27;27170;-75
2022/10/23 13:40:49;;;;;;;;;;;;;;;;;;8416240;27;27578;-76
2022/10/23 13:44:49;;;;;;;;;;;;;;;;;;8429805;27;28223;-75
2022/10/23 13:48:49;;;;;;;;;;;;;;;;;;8422919;27;28291;-75
2022/10/23 13:52:49;;;;;;;;;;;;;;;;;;8417719;27;27569;-75
2022/10/23 13:56:49;;;;;;;;;;;;;;;;;;8423301;27;27424;-75
2022/10/23 14:00:50;;;;;;;;;;;;;;;;;;8424184;27;28140;-74
2022/10/23 14:04:50;;;;;;;;;;;;;;;;;;8421715;27;27450;-74
2022/10/23 14:08:50;;;;;;;;;;;;;;;;;;8419915;27;28160;-75
2022/10/23 14:12:53;;;;;;;;;;;;;;;;;;8424817;27;28361;-74
2022/10/23 14:16:53;;;;;;;;;;;;;;;;;;8423063;27;27433;-75
2022/10/23 14:20:54;;;;;;;;;;;;;;;;;;8423205;27;27276;-75
2022/10/23 14:24:54;;;;;;;;;;;;;;;;;;8425628;27;27444;-75
2022/10/23 14:28:54;;;;;;;;;;;;;;;;;;8426560;27;27966;-75
2022/10/23 14:32:54;;;;;;;;;;;;;;;;;;8422540;27;28347;-75
2022/10/23 14:36:54;;;;;;;;;;;;;;;;;;8427510;27;28279;-74
2022/10/23 14:40:54;;;;;;;;;;;;;;;;;;8416737;27;28179;-75
2022/10/23 14:44:54;;;;;;;;;;;;;;;;;;8420956;27;28920;-75
2022/10/23 14:48:54;;;;;;;;;;;;;;;;;;8421156;27;27221;-74
2022/10/23 14:52:55;;;;;;;;;;;;;;;;;;8418389;27;27316;-75
2022/10/23 14:56:55;;;;;;;;;;;;;;;;;;8426719;27;27366;-75
2022/10/23 15:00:55;;;;;;;;;;;;;;;;;;8430225;27;28270;-75
2022/10/23 15:04:55;;;;;;;;;;;;;;;;;;8428773;27;28461;-73
2022/10/23 15:08:55;;;;;;;;;;;;;;;;;;8420288;27;28691;-75
2022/10/23 15:12:55;;;;;;;;;;;;;;;;;;8426380;27;27307;-74
2022/10/23 15:16:56;;;;;;;;;;;;;;;;;;8424383;27;27364;-74
2022/10/23 15:20:56;;;;;;;;;;;;;;;;;;8421936;27;28665;-75
2022/10/23 15:24:56;;;;;;;;;;;;;;;;;;8423595;27;27349;-75
2022/10/23 15:28:56;;;;;;;;;;;;;;;;;;8419509;27;27325;-75
2022/10/23 15:32:56;;;;;;;;;;;;;;;;;;8419146;27;28502;-75
2022/10/23 15:36:56;;;;;;;;;;;;;;;;;;8425006;27;28496;-75
2022/10/23 15:40:56;;;;;;;;;;;;;;;;;;8425030;27;28173;-75
2022/10/23 15:44:57;;;;;;;;;;;;;;;;;;8427708;27;28490;-75
2022/10/23 15:48:57;;;;;;;;;;;;;;;;;;8419060;27;28353;-75
2022/10/23 15:52:57;;;;;;;;;;;;;;;;;;8423399;27;27612;-75
2022/10/23 15:56:57;;;;;;;;;;;;;;;;;;8428389;27;29367;-75
2022/10/23 16:00:58;;;;;;;;;;;;;;;;;;8423089;27;28990;-75
2022/10/23 16:04:58;;;;;;;;;;;;;;;;;;8421420;27;28414;-74
2022/10/23 16:08:58;;;;;;;;;;;;;;;;;;8422049;27;28576;-74
2022/10/23 16:12:58;;;;;;;;;;;;;;;;;;8427150;27;27429;-74
2022/10/23 16:16:59;;;;;;;;;;;;;;;;;;8427125;27;27534;-75
2022/10/23 16:20:59;;;;;;;;;;;;;;;;;;8414930;27;28558;-75
2022/10/23 16:24:59;;;;;;;;;;;;;;;;;;8416526;27;27579;-75
2022/10/23 16:28:59;;;;;;;;;;;;;;;;;;8420719;27;27391;-74
2022/10/23 16:32:59;;;;;;;;;;;;;;;;;;8423297;27;27897;-73
2022/10/23 16:36:59;;;;;;;;;;;;;;;;;;8416445;27;27164;-75
2022/10/23 16:41:00;;;;;;;;;;;;;;;;;;8414492;27;46956;-74
2022/10/23 16:45:00;;;;;;;;;;;;;;;;;;8425414;27;27312;-75
2022/10/23 16:49:01;;;;;;;;;;;;;;;;;;8417502;27;28180;-74
2022/10/23 16:53:03;;;;;;;;;;;;;;;;;;8415659;27;27512;-74
2022/10/23 16:57:03;;;;;;;;;;;;;;;;;;8420285;27;27490;-75
2022/10/23 17:01:04;;;;;;;;;;;;;;;;;;8429657;27;28711;-75
2022/10/23 17:05:04;;;;;;;;;;;;;;;;;;8423555;27;27220;-76
2022/10/23 17:09:04;;;;;;;;;;;;;;;;;;8430236;27;28439;-75
2022/10/23 17:13:04;;;;;;;;;;;;;;;;;;8424397;27;27976;-75
2022/10/23 17:17:05;;;;;;;;;;;;;;;;;;8418672;27;28134;-75
2022/10/23 17:21:05;;;;;;;;;;;;;;;;;;8419322;27;28106;-75
2022/10/23 17:25:06;;;;;;;;;;;;;;;;;;8426648;27;28054;-74
2022/10/23 17:29:06;;;;;;;;;;;;;;;;;;8421201;27;28822;-74
2022/10/23 17:33:06;;;;;;;;;;;;;;;;;;8419585;27;29154;-74
2022/10/23 17:37:06;;;;;;;;;;;;;;;;;;8423385;27;27585;-74
2022/10/23 17:41:06;;;;;;;;;;;;;;;;;;8423402;27;28045;-75
2022/10/23 17:45:07;;;;;;;;;;;;;;;;;;8426583;27;27349;-74
2022/10/23 17:49:07;;;;;;;;;;;;;;;;;;8422563;27;27631;-74
2022/10/23 17:53:07;;;;;;;;;;;;;;;;;;8420720;27;28285;-74
2022/10/23 17:57:07;;;;;;;;;;;;;;;;;;8417219;27;29345;-75
2022/10/23 18:01:07;;;;;;;;;;;;;;;;;;8425460;27;28201;-74
2022/10/23 18:05:08;;;;;;;;;;;;;;;;;;8425860;27;29632;-75
2022/10/23 18:09:08;;;;;;;;;;;;;;;;;;8424131;27;29313;-73
2022/10/23 18:13:08;;;;;;;;;;;;;;;;;;8429940;27;27325;-74
2022/10/23 18:17:08;;;;;;;;;;;;;;;;;;8417102;27;28163;-74
2022/10/23 18:21:08;;;;;;;;;;;;;;;;;;8422796;27;27339;-74
2022/10/23 18:25:08;;;;;;;;;;;;;;;;;;8420222;27;27482;-74
2022/10/23 18:29:09;;;;;;;;;;;;;;;;;;8422620;27;28556;-74
2022/10/23 18:33:09;;;;;;;;;;;;;;;;;;8417006;27;27468;-74
2022/10/23 18:37:09;;;;;;;;;;;;;;;;;;8422997;27;27619;-73
2022/10/23 18:41:09;;;;;;;;;;;;;;;;;;8422315;27;28526;-75
2022/10/23 18:45:09;;;;;;;;;;;;;;;;;;8421921;27;27616;-74
2022/10/23 18:49:09;;;;;;;;;;;;;;;;;;8420790;27;28257;-74
2022/10/23 18:53:09;;;;;;;;;;;;;;;;;;8428478;27;28484;-73
2022/10/23 18:57:09;;;;;;;;;;;;;;;;;;8423551;27;27178;-73
2022/10/23 19:01:10;;;;;;;;;;;;;;;;;;8417039;27;27377;-74
2022/10/23 19:05:10;;;;;;;;;;;;;;;;;;8415318;27;27792;-74
2022/10/23 19:09:12;;;;;;;;;;;;;;;;;;8417532;27;27400;-73
2022/10/23 19:13:12;;;;;;;;;;;;;;;;;;8417988;27;27917;-74
2022/10/23 19:17:12;;;;;;;;;;;;;;;;;;8413164;27;28271;-74
2022/10/23 19:21:12;;;;;;;;;;;;;;;;;;8419688;27;27203;-75
2022/10/23 19:25:13;;;;;;;;;;;;;;;;;;8416592;27;27495;-74
2022/10/23 19:29:14;;;;;;;;;;;;;;;;;;8422061;27;28343;-74
2022/10/23 19:33:14;;;;;;;;;;;;;;;;;;8419565;27;27584;-74
2022/10/23 19:37:15;;;;;;;;;;;;;;;;;;8420445;27;27703;-74
2022/10/23 19:41:16;;;;;;;;;;;;;;;;;;8418822;27;28665;-74
2022/10/23 19:45:17;;;;;;;;;;;;;;;;;;8413254;27;27328;-73
2022/10/23 19:49:17;;;;;;;;;;;;;;;;;;8416554;27;28450;-74
2022/10/23 19:53:17;;;;;;;;;;;;;;;;;;8420591;27;27962;-73
2022/10/23 19:57:17;;;;;;;;;;;;;;;;;;8421337;27;27991;-74
2022/10/23 20:01:17;;;;;;;;;;;;;;;;;;8412601;27;28162;-73
2022/10/23 20:05:17;;;;;;;;;;;;;;;;;;8416998;27;27467;-73
2022/10/23 20:09:18;;;;;;;;;;;;;;;;;;8416257;27;28582;-73
2022/10/23 20:13:18;;;;;;;;;;;;;;;;;;8417616;27;28951;-73
2022/10/23 20:17:21;;;;;;;;;;;;;;;;;;8421191;27;27347;-72
2022/10/23 20:21:21;;;;;;;;;;;;;;;;;;8414997;27;28265;-72
2022/10/23 20:25:21;;;;;;;;;;;;;;;;;;8418377;27;28457;-73
2022/10/23 20:29:21;;;;;;;;;;;;;;;;;;8421323;27;28676;-72
2022/10/23 20:33:21;;;;;;;;;;;;;;;;;;8417715;27;28168;-75
2022/10/23 20:37:22;;;;;;;;;;;;;;;;;;8423807;27;28453;-74
2022/10/23 20:41:23;;;;;;;;;;;;;;;;;;8419663;27;27681;-72
2022/10/23 20:45:23;;;;;;;;;;;;;;;;;;8414988;27;28712;-73
2022/10/23 20:49:24;;;;;;;;;;;;;;;;;;8416805;27;27396;-74
2022/10/23 20:53:24;;;;;;;;;;;;;;;;;;8420229;27;27398;-74
2022/10/23 20:57:24;;;;;;;;;;;;;;;;;;8416600;27;27916;-74
2022/10/23 21:01:25;;;;;;;;;;;;;;;;;;8414286;27;28029;-75
2022/10/23 21:05:25;;;;;;;;;;;;;;;;;;8418491;27;27579;-74
2022/10/23 21:09:25;;;;;;;;;;;;;;;;;;8421702;27;28528;-74
2022/10/23 21:13:25;;;;;;;;;;;;;;;;;;8423401;27;28190;-74
2022/10/23 21:17:25;;;;;;;;;;;;;;;;;;8423634;27;27895;-74
2022/10/23 21:21:26;;;;;;;;;;;;;;;;;;8425312;27;27461;-74
2022/10/23 21:25:26;;;;;;;;;;;;;;;;;;8423946;27;27568;-74
2022/10/23 21:29:26;;;;;;;;;;;;;;;;;;8427364;27;28140;-74
2022/10/23 21:33:27;;;;;;;;;;;;;;;;;;8419043;27;28469;-75
2022/10/23 21:37:27;;;;;;;;;;;;;;;;;;8426763;27;28937;-75
2022/10/23 21:41:28;;;;;;;;;;;;;;;;;;8427357;27;28353;-72
2022/10/23 21:45:28;;;;;;;;;;;;;;;;;;8423785;27;29429;-74
2022/10/23 21:49:28;;;;;;;;;;;;;;;;;;8423563;27;28621;-74
2022/10/23 21:53:28;;;;;;;;;;;;;;;;;;8424327;27;27383;-73
2022/10/23 21:57:28;;;;;;;;;;;;;;;;;;8427453;27;28724;-73
2022/10/23 22:01:29;;;;;;;;;;;;;;;;;;8428683;27;28129;-74
2022/10/23 22:05:29;;;;;;;;;;;;;;;;;;8422715;27;28460;-72
2022/10/23 22:09:29;;;;;;;;;;;;;;;;;;8418634;27;27511;-70
2022/10/23 22:13:29;;;;;;;;;;;;;;;;;;8424168;27;27788;-71
2022/10/23 22:17:29;;;;;;;;;;;;;;;;;;8418751;27;27452;-72
2022/10/23 22:21:29;;;;;;;;;;;;;;;;;;8425761;27;28690;-73
2022/10/23 22:25:30;;;;;;;;;;;;;;;;;;8423201;27;28167;-73
2022/10/23 22:29:30;;;;;;;;;;;;;;;;;;8429644;27;28190;-73
2022/10/23 22:33:30;;;;;;;;;;;;;;;;;;8421311;27;27284;-75
2022/10/23 22:37:30;;;;;;;;;;;;;;;;;;8419771;27;27328;-75
2022/10/23 22:41:30;;;;;;;;;;;;;;;;;;8421806;27;27992;-75
2022/10/23 22:45:30;;;;;;;;;;;;;;;;;;8420937;27;27813;-73
2022/10/23 22:49:31;;;;;;;;;;;;;;;;;;8421658;27;29350;-73
2022/10/23 22:53:31;;;;;;;;;;;;;;;;;;8424200;27;28116;-73
2022/10/23 22:57:31;;;;;;;;;;;;;;;;;;8427000;27;28181;-74
2022/10/23 23:01:31;;;;;;;;;;;;;;;;;;8423317;27;27332;-73
2022/10/23 23:05:31;;;;;;;;;;;;;;;;;;8422008;27;28044;-73
2022/10/23 23:09:31;;;;;;;;;;;;;;;;;;8426091;27;28518;-72
2022/10/23 23:13:31;;;;;;;;;;;;;;;;;;8423596;27;28196;-73
2022/10/23 23:17:32;;;;;;;;;;;;;;;;;;8424326;27;28635;-73
2022/10/23 23:21:32;;;;;;;;;;;;;;;;;;8420763;27;28703;-74
2022/10/23 23:25:32;;;;;;;;;;;;;;;;;;8423996;27;28479;-74
2022/10/23 23:29:32;;;;;;;;;;;;;;;;;;8418465;27;27395;-73
2022/10/23 23:33:32;;;;;;;;;;;;;;;;;;8424955;27;28555;-73
2022/10/23 23:37:32;;;;;;;;;;;;;;;;;;8424620;27;29352;-74
2022/10/23 23:41:33;;;;;;;;;;;;;;;;;;8421770;27;27389;-73
2022/10/23 23:45:33;;;;;;;;;;;;;;;;;;8421555;27;27995;-74
2022/10/23 23:49:33;;;;;;;;;;;;;;;;;;8420446;27;27250;-74
2022/10/23 23:53:33;;;;;;;;;;;;;;;;;;8420234;27;27468;-73
2022/10/23 23:57:33;;;;;;;;;;;;;;;;;;8417081;27;28148;-75
